Tiempo atmosférico en la estación meteorológica de Fuengirola, Málaga (3 m.)



Fecha
DESCASC
Temp. máxima en grados centígrados (hora)
DESCASC
Temp. mínima en grados centígrados (hora)
DESCASC
Temp. media en grados centígrados
DESCASC
Racha de viento máxima en m/sg (hora)
DESCASC
Velocidad máxima media en intervalos de 10 minutos(hora)
DESCASC
Precipitaciones diarias en mm
DESCASC
Precipitaciones de 00:00 a 06:00 en mm
DESCASC
Precipitaciones de 06:00 a 12:00 en mm
DESCASC
Precipitaciones de 12:00 a 18:00 en mm
DESCASC
Precipitaciones de 18:00 a 24:00 en mm
DESCASC
05-04-2020 -- (--) -- (--) -- 5.83 (00:50) 3.61 (01:00) 0 0 0 0 0
04-04-2020 -- (--) -- (--) -- 13.33 (09:10) 8.61 (11:00) 0.2 0 0 0.2 0
03-04-2020 -- (--) -- (--) -- 8.61 (23:40) 6.11 (14:10) 0 0 0 0 0
02-04-2020 -- (--) -- (--) -- -- (--) -- (--) -- -- -- 3.4 0
01-04-2020 -- (--) -- (--) -- -- (--) -- (--) -- -- -- -- --
31-03-2020 -- (--) -- (--) -- -- (--) -- (--) -- 12.7 14.5 10.9 --
30-03-2020 -- (--) -- (--) -- 11.67 (19:10) 4.17 (17:50) 0 0 0 0 0
29-03-2020 -- (--) -- (--) -- 6.67 (15:40) 4.44 (15:40) 0 0 0 0 0
28-03-2020 -- (--) -- (--) -- 11.39 (11:00) 8.61 (11:00) 11 0.9 10.1 0 0
27-03-2020 -- (--) -- (--) -- 11.94 (08:30) 8.89 (09:20) 0 0 0 0 0
26-03-2020 -- (--) -- (--) -- 11.39 (16:30) 3.33 (12:00) 0 0 0 0 0
25-03-2020 -- (--) -- (--) -- 8.06 (09:50) 5.56 (09:50) 9.7 5.9 3.8 0 0
24-03-2020 -- (--) -- (--) -- 6.39 (07:20) 3.06 (07:20) 7 0.3 2.4 0.1 4.2
23-03-2020 -- (--) -- (--) -- 8.61 (15:20) 6.11 (15:20) 20.8 0 0.4 20.3 0.1
22-03-2020 -- (--) -- (--) -- 8.89 (08:20) 5 (08:00) 7.3 7.3 0 0 0
21-03-2020 -- (--) -- (--) -- 12.5 (01:40) 9.17 (01:40) 33 27.1 0 2.6 3.3
20-03-2020 -- (--) -- (--) -- 13.61 (02:00) 8.33 (05:30) 1.7 0 0 0 1.7
19-03-2020 -- (--) -- (--) -- 11.67 (15:10) 8.33 (12:40) 0 0 0 0 0
18-03-2020 -- (--) -- (--) -- 18.61 (01:20) 13.33 (01:20) 0.1 0.1 0 0 0
17-03-2020 -- (--) -- (--) -- 23.33 (16:30) 10 (13:50) 0.2 0 0 0.2 0
16-03-2020 -- (--) -- (--) -- 10.28 (10:50) 4.44 (11:00) 0 0 0 0 0
15-03-2020 -- (--) -- (--) -- 7.5 (13:10) 5 (13:10) 2.6 0 1.8 0.8 0
14-03-2020 -- (--) -- (--) -- 6.39 (00:50) 4.72 (00:20) 0 0 0 0 0
13-03-2020 -- (--) -- (--) -- 8.89 (18:50) 6.67 (18:50) 0 0 0 0 0
12-03-2020 -- (--) -- (--) -- 4.72 (13:00) 3.61 (14:30) 0 0 0 0 0
11-03-2020 -- (--) -- (--) -- 8.06 (18:20) 5.28 (18:20) 0 0 0 0 0
10-03-2020 -- (--) -- (--) -- 11.39 (03:30) 6.11 (05:30) 0 0 0 0 0

Gráficas

Temp. máximas Temp. mínimas Temp. medias Precipitaciones Rachas de viento máximas Velocidades máximas media en intervalos de 10 minutos

Datos horarios

Fecha y hora oficial Temperatura (ºC) Velocidad del viento (km/h) Dirección del viento Racha (km/h) Dirección de racha Precipitación (mm) Presión (hPa) Tendencia (hPa) Humedad (%)
2020-04-08 23:00:00 -- 12 Este 18 Este 0 1021.1 0.4 93
2020-04-08 22:00:00 -- 6 Este 13 Este 0 1021.2 0.8 91
2020-04-08 21:00:00 -- 8 Este 16 Sudeste 0 1020.8 0.2 90
2020-04-08 20:00:00 -- 10 Sudeste 15 Este 0 1020.7 -0.3 89
2020-04-08 19:00:00 -- 9 Este 15 Este 0 1020.4 -1.2 87
2020-04-08 18:00:00 -- 8 Este 15 Sudeste 0 1020.6 -1.4 85
2020-04-08 17:00:00 -- 9 Este 16 Este 0 1021 -1.7 85
2020-04-08 16:00:00 -- 9 Este 22 Sudeste 0 1021.6 -1.2 89
2020-04-08 15:00:00 -- 15 Sudeste 26 Sudeste 0 1022 -1.2 90
2020-04-08 14:00:00 -- 18 Sudeste 27 Sudeste 0 1022.7 -0.1 90
2020-04-08 13:00:00 -- 19 Sudeste 23 Sudeste 0 1022.8 0.2 90
2020-04-08 12:00:00 -- 17 Sudeste 24 Sudeste 0 1023.2 0.6 92
2020-04-08 11:00:00 -- 17 Sudeste 22 Sudeste 0 1022.8 0.5 93
2020-04-08 10:00:00 -- 15 Sudeste 20 Sudeste 0 1022.6 0.6 93
2020-04-08 09:00:00 -- 15 Sudeste 22 Sudeste 0 1022.6 0.4 94
2020-04-08 08:00:00 -- 14 Sudeste 18 Sudeste 0 1022.3 -0.6 94
2020-04-08 07:00:00 -- 13 Sudeste 19 Sudeste 0 1022 -1.4 94
2020-04-08 06:00:00 -- 12 Sudeste 18 Sudeste 0 1022.2 -1.9 93
2020-04-08 05:00:00 -- 9 Nordeste 15 Nordeste 0 1022.9 -1.4 95
2020-04-08 04:00:00 -- 6 Este 12 Nordeste 0 1023.4 -0.9 95
2020-04-08 03:00:00 -- 8 Este 13 Este 0 1024.1 -0.2 95
2020-04-08 02:00:00 -- 9 Este 13 Este 0 1024.3 0 95
2020-04-08 01:00:00 -- 6 Este 13 Este 0 1024.3 0.6 94
2020-04-08 00:00:00 -- 10 Este 14 Este 0 1024.3 1.2 94
2020-04-07 23:00:00 -- 8 Nordeste 15 Este 0 1024.3 1.5 94
2020-04-07 22:00:00 -- 8 Este 12 Este 0 1023.7 1 93
2020-04-07 21:00:00 -- 5 Este 9 Este 0 1023.1 0.6 92
2020-04-07 20:00:00 -- 5 Este 10 Sudeste 0 1022.8 0.1 91
2020-04-07 19:00:00 -- 5 Este 11 Sudeste 0 1022.7 -0.5 91
2020-04-07 18:00:00 -- 7 Sudeste 11 Este 0 1022.5 -1.4 91
2020-04-07 17:00:00 -- 7 Este 11 Este 0 1022.7 -1.7 92
2020-04-07 16:00:00 -- 9 Este 13 Este 0 1023.2 -1.4 93
2020-04-07 15:00:00 -- 7 Este 15 Este 0 1023.9 -0.7 93
2020-04-07 14:00:00 -- 11 Sudeste 15 Sudeste 0 1024.4 0.1 93
2020-04-07 13:00:00 -- 10 Sudeste 18 Sudeste 0 1024.6 0.9 94
2020-04-07 12:00:00 -- 9 Este 16 Sudeste 0 1024.6 1.4 94
2020-04-07 11:00:00 -- 8 Este 14 Sudeste 0 1024.3 1.2 94
2020-04-07 10:00:00 -- 12 Sudeste 17 Sudeste 0 1023.7 0.8 95
2020-04-07 09:00:00 -- 9 Este 12 Este 0 1023.2 0.4 95
2020-04-07 08:00:00 -- 6 Este 13 Este 0 1023.1 0.3 95
2020-04-07 07:00:00 -- 8 Este 12 Este 0 1022.9 0 95
2020-04-07 06:00:00 -- 6 Este 12 Este 0 1022.8 -0.1 95
2020-04-07 05:00:00 -- 9 Este 17 Este 0 1022.8 -0.1 95
2020-04-07 04:00:00 -- 12 Este 20 Este 0 1022.9 -0.2 96
2020-04-07 03:00:00 -- 14 Este 19 Este 0 1022.9 -0.6 94
2020-04-07 02:00:00 -- 10 Este 14 Este 0 1022.9 -0.4 92
2020-04-07 01:00:00 -- 5 Nordeste 8 Nordeste 0 1023.1 0.2 92
2020-04-07 00:00:00 -- 3 Este 5 Sudeste 0 1023.5 1.6 92
2020-04-06 23:00:00 -- 2 Este 4 Sudeste 0 1023.3 1.8 92
2020-04-06 22:00:00 -- 0 Calma 6 Sudoeste 0 1022.9 1.6 91
2020-04-06 21:00:00 -- 5 Sudoeste 9 Sur 0 1021.9 0.4 90
2020-04-06 20:00:00 -- 5 Sur 10 Sur 0 1021.5 -0.3 88
2020-04-06 19:00:00 -- 6 Sur 10 Sur 0 1021.3 -1.1 89
2020-04-06 18:00:00 -- 7 Sur 10 Sur 0 1021.5 -1 88
2020-04-06 17:00:00 -- 7 Sudeste 10 Sudeste 0 1021.8 -1.1 88
2020-04-06 16:00:00 -- 6 Sur 12 Sudeste 0 1022.4 -0.6 88
2020-04-06 15:00:00 -- 7 Sudeste 14 Sudeste 0 1022.5 -0.2 88
2020-04-06 14:00:00 -- 8 Este 13 Sudeste 0 1022.9 0.5 89
2020-04-06 13:00:00 -- 8 Este 15 Sudeste 0 1023 1.3 89
2020-04-06 12:00:00 -- 7 Este 10 Este 0 1022.7 1.4 90
2020-04-06 11:00:00 -- 6 Este 9 Este 0 1022.4 2 92
2020-04-06 10:00:00 -- 0 Calma 5 Noroeste 0 1021.7 2 91
2020-04-06 09:00:00 -- 3 Noroeste 10 Oeste 0 1021.3 1.6 91
2020-04-06 08:00:00 -- 4 Noroeste 12 Oeste 0 1020.4 0.9 91
2020-04-06 07:00:00 -- 5 Noroeste 11 Oeste 0 1019.7 0 91
2020-04-06 06:00:00 -- 5 Noroeste 10 Noroeste 0 1019.7 -0.5 92
2020-04-06 05:00:00 -- 4 Noroeste 8 Noroeste 0 1019.5 -1.2 92
2020-04-06 04:00:00 -- 4 Noroeste 9 Oeste 0 1019.7 -0.8 92
2020-04-06 03:00:00 -- 4 Noroeste 8 Noroeste 0 1020.2 0 92
2020-04-06 02:00:00 -- 3 Noroeste 9 Oeste 0 1020.7 0.6 92
2020-04-06 01:00:00 -- 3 Sudeste 10 Este 0 1020.5 1 93
2020-04-06 00:00:00 -- 6 Este 10 Sudeste 0 1020.2 1.4 92
2020-04-05 23:00:00 -- 8 Este 13 Este 0 1020.1 1.5 90
2020-04-05 22:00:00 -- 7 Este 13 Sudeste 0 1019.5 1.3 89
2020-04-05 21:00:00 -- 9 Sudeste 15 Sudeste 0 1018.8 0.5 87
2020-04-05 20:00:00 -- 10 Sudeste 13 Sudeste 0 1018.6 0.5 85
2020-04-05 19:00:00 -- 7 Este 13 Sudeste 0 1018.2 -0.4 83
2020-04-05 18:00:00 -- 5 Sudeste 14 Este 0 1018.3 -0.8 82
2020-04-05 17:00:00 -- 9 Este 14 Sudeste 0 1018.1 -1.3 82
2020-04-05 16:00:00 -- 9 Este 19 Este 0 1018.6 -1.1 82
2020-04-05 15:00:00 -- 9 Este 15 Este 0 1019.1 -0.6 82
2020-04-05 14:00:00 -- 8 Este 13 Este 0 1019.4 0.1 83
2020-04-05 13:00:00 -- 10 Sudeste 15 Sudeste 0 1019.7 1 85
2020-04-05 12:00:00 -- 5 Sudeste 10 Este 0 1019.7 1.6 86
2020-04-05 11:00:00 -- 5 Sudeste 8 Sudeste 0 1019.3 1.7 90
2020-04-05 10:00:00 -- 0 Calma 8 Oeste 0 1018.7 1.5 93
2020-04-05 09:00:00 -- 3 Noroeste 8 Noroeste 0 1018.1 1.3 94
2020-04-05 08:00:00 -- 3 Noroeste 8 Noroeste 0 1017.6 0.6 94
2020-04-05 07:00:00 -- 4 Noroeste 11 Oeste 0 1017.2 0.4 94
2020-04-05 06:00:00 -- 3 Noroeste 7 Noroeste 0 1016.8 -0.5 93
2020-04-05 05:00:00 -- 2 Noroeste 7 Norte 0 1017 -0.5 93
2020-04-05 04:00:00 -- 4 Noroeste 11 Oeste 0 1016.8 -0.7 92
2020-04-05 03:00:00 -- 5 Nordeste 17 Este 0 1017.3 -0.2 92
2020-04-05 02:00:00 -- 9 Este 18 Este 0 1017.5 -0.1 91
2020-04-05 01:00:00 -- 13 Este 21 Sudeste 0 1017.5 0.6 91
2020-04-05 00:00:00 -- 4 Este 14 Este 0 1017.5 1.6 87
2020-04-04 23:00:00 -- 0 Calma 5 Norte 0 1017.6 2.1 86
2020-04-04 22:00:00 -- 3 Noroeste 5 Noroeste 0 1016.9 1.4 86
2020-04-04 21:00:00 -- 0 Calma 5 Noroeste 0 1015.9 0.5 86
2020-04-04 20:00:00 -- 0 Calma 8 Sudoeste 0 1015.5 0.9 87
2020-04-04 19:00:00 -- 4 Sudoeste 11 Sur 0 1015.5 0.6 87
2020-04-04 18:00:00 -- 3 Sur 23 Este 0 1015.4 -0.7 87
2020-04-04 17:00:00 -- 9 Este 32 Este 0 1014.6 -1.9 87
2020-04-04 16:00:00 -- 23 Este 37 Este 0.2 1014.9 -1.3 88
2020-04-04 15:00:00 -- 12 Este 23 Sudeste 0 1016.1 0.3 86
2020-04-04 14:00:00 -- 18 Sudeste 28 Sudeste 0 1016.5 1.5 84
2020-04-04 13:00:00 -- 23 Sudeste 36 Sudeste 0 1016.2 1.6 83
2020-04-04 12:00:00 -- 26 Sudeste 40 Sudeste 0 1015.8 1.4 82
2020-04-04 11:00:00 -- 31 Sudeste 43 Este 0 1015 1 83
2020-04-04 10:00:00 -- 25 Este 48 Sudeste 0 1014.6 1 85
2020-04-04 09:00:00 -- 28 Este 42 Sudeste 0 1014.4 0.7 87
2020-04-04 08:00:00 -- 25 Este 39 Este 0 1014 -0.1 87
2020-04-04 07:00:00 -- 21 Este 37 Este 0 1013.6 -1 86
2020-04-04 06:00:00 -- 23 Este 36 Este 0 1013.7 -1.4 87
2020-04-04 05:00:00 -- 21 Este 33 Este 0 1014.1 -1.3 87
2020-04-04 04:00:00 -- 18 Este 33 Este 0 1014.6 -1.2 87
2020-04-04 03:00:00 -- 20 Este 36 Este 0 1015.1 -1 88
2020-04-04 02:00:00 -- 25 Este 39 Este 0 1015.4 -0.9 89
2020-04-04 01:00:00 -- 20 Este 32 Este 0 1015.8 0.3 87
2020-04-04 00:00:00 -- 19 Este 31 Este 0 1016.1 1.1 87
2020-04-03 23:00:00 -- 19 Este 27 Sudeste 0 1016.3 1.3 85
2020-04-03 22:00:00 -- 17 Este 27 Este 0 1015.5 0.5 86
2020-04-03 21:00:00 -- 19 Este 27 Este 0 1015 0.1 86
2020-04-03 20:00:00 -- 17 Este 24 Este 0 1015 -0.2 83
2020-04-03 19:00:00 -- 15 Este 23 Este 0 1015 -0.4 82
2020-04-03 18:00:00 -- 13 Este 21 Sudeste 0 1014.9 -1 82
2020-04-03 17:00:00 -- 15 Este 27 Sudeste 0 1015.2 -0.9 82
2020-04-03 16:00:00 -- 17 Este 27 Este 0 1015.4 -0.9 82
2020-04-03 15:00:00 -- 18 Este 28 Este 0 1015.9 -0.5 83
2020-04-03 14:00:00 -- 20 Este 27 Este 0 1016.1 0.4 82
2020-04-03 13:00:00 -- 18 Este 26 Este 0 1016.3 1.7 81
2020-04-03 12:00:00 -- 16 Este 29 Este 0 1016.4 2 79
2020-04-03 11:00:00 -- 17 Sur 25 Sur 0 1015.7 2.3 82
2020-04-03 10:00:00 -- 2 Oeste 19 Noroeste 0 1014.6 1.5 75
2020-04-03 09:00:00 -- 11 Oeste 23 Oeste 0 1014.4 1.2 77
2020-04-03 08:00:00 -- 8 Oeste 20 Oeste 0 1013.4 -0.1 82
2020-04-03 07:00:00 -- 7 Noroeste 15 Oeste 0 1013.1 -0.5 84
2020-04-03 06:00:00 -- 7 Noroeste 13 Noroeste 0 1013.2 -1 82
2020-04-03 05:00:00 -- 3 Nordeste 17 Norte 0 1013.5 -0.8 79
2020-04-03 04:00:00 -- 4 Oeste 10 Oeste 0 1013.6 -0.6 78
2020-04-03 03:00:00 -- 5 Oeste 10 Norte 0 1014.2 0.3 74
2020-04-03 02:00:00 -- 3 Oeste 15 Oeste 0 1014.3 0.7 71
2020-04-03 01:00:00 -- 4 Oeste 14 Sur 0 1014.2 1.1 71
2020-04-03 00:00:00 -- 5 Sudoeste 21 Norte 0 1013.9 1.6 72
2020-04-02 23:00:00 -- 7 Noroeste 29 Norte 0 1013.6 1.6 66
2020-04-02 22:00:00 -- 10 Noroeste 27 Noroeste 0 1013.1 1.4 66
2020-04-02 21:00:00 -- 0 Calma 10 Norte 0 1012.3 1.3 77
2020-04-02 20:00:00 -- 3 Oeste 14 Oeste 0 1012 1.1 77
2020-04-02 19:00:00 -- 4 Oeste 19 Noroeste 0 1011.7 0.6 74
2020-04-02 18:00:00 -- 11 Norte 26 Noroeste 0 1011 -0.2 64
2020-04-02 17:00:00 -- 8 Noroeste 23 Oeste 0.2 1010.9 0.2 84
2020-04-02 16:00:00 -- 4 Noroeste 14 Norte 2.8 1011.1 0.2 93
2020-04-02 15:00:00 -- 3 Oeste 20 Sur 0 1011.2 0 86
2020-04-02 14:00:00 -- 12 Sudeste 17 Sudeste 0.3 1010.7 -- 92
2020-04-02 13:00:00 -- 7 Sudeste 13 Sudeste 0.1 1010.9 -- 93
2020-04-02 12:00:00 -- 0 Calma -- -- -- 1011.2 -- 93
2020-04-02 11:00:00 -- -- -- -- -- -- -- -- --
2020-04-02 10:00:00 -- -- -- -- -- -- -- -- --
2020-04-02 09:00:00 -- -- -- -- -- -- -- -- --
2020-04-02 08:00:00 -- -- -- -- -- -- -- -- --
2020-04-02 07:00:00 -- -- -- -- -- -- -- -- --
2020-04-02 06:00:00 -- -- -- -- -- -- -- -- --
2020-04-02 05:00:00 -- -- -- -- -- -- -- -- --
2020-04-02 04:00:00 -- -- -- -- -- -- -- -- --
2020-04-02 03:00:00 -- -- -- -- -- -- -- -- --
2020-04-02 02:00:00 -- -- -- -- -- -- -- -- --
2020-04-02 01:00:00 -- -- -- -- -- -- -- -- --
2020-04-02 00:00:00 -- -- -- -- -- -- -- -- --
2020-04-01 23:00:00 -- -- -- -- -- -- -- -- --
2020-04-01 22:00:00 -- -- -- -- -- -- -- -- --
2020-04-01 21:00:00 -- -- -- -- -- -- -- -- --
2020-04-01 20:00:00 -- -- -- -- -- -- -- -- --
2020-04-01 19:00:00 -- -- -- -- -- -- -- -- --
2020-04-01 18:00:00 -- -- -- -- -- -- -- -- --
2020-04-01 17:00:00 -- -- -- -- -- -- -- -- --
2020-04-01 16:00:00 -- -- -- -- -- -- -- -- --
2020-04-01 15:00:00 -- -- -- -- -- -- -- -- --
2020-04-01 14:00:00 -- -- -- -- -- -- -- -- --
2020-04-01 13:00:00 -- -- -- -- -- -- -- -- --
2020-04-01 12:00:00 -- -- -- -- -- -- -- -- --
2020-04-01 11:00:00 -- -- -- -- -- -- -- -- --
2020-04-01 10:00:00 -- -- -- -- -- -- -- -- --
2020-04-01 09:00:00 -- -- -- -- -- -- -- -- --
2020-04-01 08:00:00 -- -- -- -- -- -- -- -- --
2020-04-01 07:00:00 -- -- -- -- -- -- -- -- --
2020-04-01 06:00:00 -- -- -- -- -- -- -- -- --
2020-04-01 05:00:00 -- -- -- -- -- -- -- -- --
2020-04-01 04:00:00 -- -- -- -- -- -- -- -- --
2020-04-01 03:00:00 -- -- -- -- -- -- -- -- --
2020-04-01 02:00:00 -- -- -- -- -- -- -- -- --
2020-04-01 01:00:00 -- -- -- -- -- -- -- -- --
2020-04-01 00:00:00 -- -- -- -- -- -- -- -- --
2020-03-31 23:00:00 -- -- -- -- -- -- -- -- --
2020-03-31 22:00:00 -- -- -- -- -- -- -- -- --
2020-03-31 21:00:00 -- 0 Calma 8 Oeste 0 1008.4 1.6 94
2020-03-31 20:00:00 -- 3 Oeste 20 Sudoeste 0 1007.2 0.7 96
2020-03-31 19:00:00 -- 9 Sudoeste 27 Sudoeste 0.2 1007 0.3 99
2020-03-31 18:00:00 -- 17 Sur 27 Sudoeste 0 1006.8 0.1 99
2020-03-31 17:00:00 -- 13 Sudoeste 28 Sur 0.2 1006.5 -0.1 98
2020-03-31 16:00:00 -- 12 Este 27 Sudeste 0.1 1006.7 0.1 99
2020-03-31 15:00:00 -- 9 Este 21 Este 0 1006.7 0.4 99
2020-03-31 14:00:00 -- 3 Norte 16 Norte 6.5 1006.6 0.9 99
2020-03-31 13:00:00 -- 6 Oeste 34 Sur 4.1 1006.6 1.6 99
2020-03-31 12:00:00 -- 13 Sudoeste 44 Sudoeste 2.9 1006.3 1.8 99
2020-03-31 11:00:00 -- 4 Noroeste 28 Sudoeste 6.1 1005.7 1.9 99
2020-03-31 10:00:00 -- 24 Sur 44 Sur 4.1 1005 1.3 99
2020-03-31 09:00:00 -- 28 Sur 48 Sur 0.1 1004.5 0.4 98
2020-03-31 08:00:00 -- 36 Sudeste 48 Sur 0.2 1003.8 -0.7 99
2020-03-31 07:00:00 -- 29 Sudeste 37 Sudeste 1.1 1003.7 -1.9 99
2020-03-31 06:00:00 -- 18 Este 32 Sudeste 0.8 1004.1 -2.2 98
2020-03-31 05:00:00 -- 26 Sudeste 35 Sudeste 1.3 1004.5 -1.6 98
2020-03-31 04:00:00 -- 18 Sudeste 30 Sudeste 2.7 1005.6 -1.1 97
2020-03-31 03:00:00 -- 6 Sur 14 Sur 4.4 1006.3 0.1 96
2020-03-31 02:00:00 -- 12 Sur 21 Sur 3.1 1006.1 -0.7 95
2020-03-31 01:00:00 -- 9 Sudoeste 20 Sudoeste 0.4 1006.7 -0.3 93
2020-03-31 00:00:00 -- 12 Este 21 Este 0 1006.2 -0.8 93
2020-03-30 23:00:00 -- 13 Nordeste 19 Nordeste 0 1006.8 -0.4 90
2020-03-30 22:00:00 -- 12 Este 15 Este 0 1007 -0.5 90
2020-03-30 21:00:00 -- 7 Este 10 Este 0 1007 -0.8 89
2020-03-30 20:00:00 -- 3 Sur 42 Sudoeste 0 1007.2 -1.4 89
2020-03-30 19:00:00 -- 14 Sudoeste 20 Sudoeste 0 1007.5 -1.4 90
2020-03-30 18:00:00 -- 10 Sudoeste 21 Sur 0 1007.8 -1.7 90
2020-03-30 17:00:00 -- 2 Sudoeste 18 Sur 0 1008.6 -1.7 87
2020-03-30 16:00:00 -- 6 Sudoeste 22 Sur 0 1008.9 -1.9 83
2020-03-30 15:00:00 -- 7 Sudoeste 19 Sur 0 1009.5 -2.1 81
2020-03-30 14:00:00 -- 5 Sudoeste 22 Sudoeste 0 1010.3 -1.6 79
2020-03-30 13:00:00 -- 5 Sudoeste 21 Sur 0 1010.8 -1.1 80
2020-03-30 12:00:00 -- 12 Sudoeste 17 Sur 0 1011.6 -0.5 90
2020-03-30 11:00:00 -- 12 Sudoeste 15 Sudoeste 0 1011.9 -0.1 93
2020-03-30 10:00:00 -- 4 Oeste 11 Oeste 0 1011.9 -0.2 91
2020-03-30 09:00:00 -- 5 Oeste 12 Oeste 0 1012.1 -0.2 93
2020-03-30 08:00:00 -- 6 Oeste 12 Oeste 0 1012 -1.2 93
2020-03-30 07:00:00 -- 6 Oeste 10 Oeste 0 1012.1 -1.4 93
2020-03-30 06:00:00 -- 4 Noroeste 8 Noroeste 0 1012.3 -2 92
2020-03-30 05:00:00 -- 4 Noroeste 6 Oeste 0 1013.2 -1.8 91
2020-03-30 04:00:00 -- 4 Oeste 7 Oeste 0 1013.5 -2 91
2020-03-30 03:00:00 -- 0 Calma 5 Noroeste 0 1014.3 -1.4 90
2020-03-30 02:00:00 -- 3 Norte 9 Sudoeste 0 1015 -1.1 90
2020-03-30 01:00:00 -- 2 Oeste 10 Oeste 0 1015.5 -0.3 89
2020-03-30 00:00:00 -- 3 Oeste 10 Oeste 0 1015.7 0.1 87
2020-03-29 23:00:00 -- 3 Oeste 10 Oeste 0 1016.1 0.3 87
2020-03-29 22:00:00 -- 3 Oeste 11 Oeste 0 1015.8 0.3 85
2020-03-29 21:00:00 -- 2 Oeste 13 Oeste 0 1015.6 -0.2 85
2020-03-29 20:00:00 -- 5 Oeste 20 Sudoeste 0 1015.8 -0.3 84
2020-03-29 19:00:00 -- 15 Sudoeste 21 Sudoeste 0 1015.5 -1.3 85
2020-03-29 18:00:00 -- 14 Sudoeste 21 Sudoeste 0 1015.8 -1.6 85
2020-03-29 17:00:00 -- 12 Sudoeste 23 Sudoeste 0 1016.1 -1.8 83
2020-03-29 16:00:00 -- 14 Sudoeste 24 Sur 0 1016.8 -1.8 85
2020-03-29 15:00:00 -- 15 Sudoeste 21 Sudoeste 0 1017.4 -1.3 85
2020-03-29 14:00:00 -- 13 Sudoeste 21 Sudoeste 0 1017.9 -0.6 87
2020-03-29 13:00:00 -- 10 Sudoeste 16 Sudoeste 0 1018.6 0.4 87
2020-03-29 12:00:00 -- 7 Sudoeste 10 Sur 0 1018.7 0.7 85
2020-03-29 11:00:00 -- 0 Calma 10 Oeste 0 1018.5 0.8 87
2020-03-29 10:00:00 -- 4 Oeste 12 Oeste 0 1018.2 0.5 92
2020-03-29 09:00:00 -- 6 Noroeste 13 Noroeste 0 1018 0.1 93
2020-03-29 08:00:00 -- 6 Noroeste 13 Oeste 0 1017.7 -0.6 93
2020-03-29 07:00:00 -- 4 Noroeste 15 Oeste 0 1017.7 -1 93
2020-03-29 06:00:00 -- 5 Noroeste 10 Norte 0 1017.9 -1.5 93
2020-03-29 05:00:00 -- 3 Noroeste 14 Este 0 1018.3 -1.3 92
2020-03-29 03:00:00 -- 5 Sudeste 14 Sudeste 0 1019.4 -0.2 91
2020-03-29 01:00:00 -- 0 Calma 8 Noroeste 0 1019.6 0.5 90
2020-03-29 00:00:00 -- 2 Noroeste 10 Sudeste 0 1019.7 1.4 89
2020-03-28 23:00:00 -- 7 Sudeste 15 Sudeste 0 1019.6 2 87
2020-03-28 22:00:00 -- 10 Este 16 Sudeste 0 1019.1 1.9 87
2020-03-28 21:00:00 -- 9 Nordeste 17 Este 0 1018.3 1.6 86
2020-03-28 20:00:00 -- 10 Este 17 Este 0 1017.6 1.2 85
2020-03-28 19:00:00 -- 12 Este 19 Este 0 1017.2 0.8 85
2020-03-28 18:00:00 -- 14 Este 20 Sudeste 0 1016.7 0 85
2020-03-28 17:00:00 -- 16 Sudeste 22 Sudeste 0 1016.4 -0.3 85
2020-03-28 16:00:00 -- 14 Este 23 Sudeste 0 1016.4 -0.2 87
2020-03-28 15:00:00 -- 18 Este 31 Sudeste 0 1016.7 0.4 90
2020-03-28 14:00:00 -- 23 Sudeste 34 Sudeste 0 1016.7 0.9 91
2020-03-28 13:00:00 -- 25 Sudeste 38 Sudeste 0 1016.6 1.2 92
2020-03-28 12:00:00 -- 30 Sudeste 41 Sudeste 0.1 1016.3 1.4 95
2020-03-28 11:00:00 -- 31 Sudeste 41 Este 7.7 1015.8 1.8 99
2020-03-28 10:00:00 -- 15 Nordeste 29 Este 2.1 1015.4 2.1 99
2020-03-28 09:00:00 -- 20 Este 35 Este 0.2 1014.9 2.3 98
2020-03-28 08:00:00 -- 25 Este 36 Este 0 1014 2 97
2020-03-28 07:00:00 -- 23 Este 35 Este 0 1013.3 1.4 94
2020-03-28 06:00:00 -- 10 Sudeste 17 Sudeste 0 1012.6 0.5 93
2020-03-28 05:00:00 -- 11 Sudeste 16 Sudeste 0 1012 -0.4 93
2020-03-28 04:00:00 -- 15 Sudeste 24 Sudeste 0 1011.9 -0.6 93
2020-03-28 03:00:00 -- 17 Sudeste 23 Sudeste 0.6 1012.1 -0.3 93
2020-03-28 02:00:00 -- 15 Sudeste 21 Sudeste 0.2 1012.4 0.3 93
2020-03-28 01:00:00 -- 15 Sudeste 22 Este 0.1 1012.5 0.8 90
2020-03-28 00:00:00 -- 17 Sudeste 25 Sudeste 0 1012.4 1.4 90
2020-03-27 23:00:00 -- 18 Este 23 Sudeste 0 1012.1 1.9 90
2020-03-27 22:00:00 -- 17 Este 24 Este 0 1011.7 1.7 90
2020-03-27 21:00:00 -- 12 Este 23 Nordeste 0 1011 1.5 89
2020-03-27 20:00:00 -- 14 Este 22 Este 0 1010.2 1 88
2020-03-27 19:00:00 -- 15 Sudeste 24 Sudeste 0 1010 0.9 88
2020-03-27 18:00:00 -- 12 Este 35 Este 0 1009.5 0.3 87
2020-03-27 17:00:00 -- 16 Este 29 Este 0 1009.2 -0.7 84
2020-03-27 16:00:00 -- 8 Sudeste 15 Sudeste 0 1009.1 -1 84
2020-03-27 15:00:00 -- 7 Sudeste 20 Sudeste 0 1009.2 -1.1 84
2020-03-27 14:00:00 -- 10 Sudeste 16 Sudeste 0 1009.9 -0.1 88
2020-03-27 13:00:00 -- 7 Sur 18 Sudeste 0 1010.1 0.6 85
2020-03-27 12:00:00 -- 13 Sudeste 33 Sur 0 1010.3 1.2 86
2020-03-27 11:00:00 -- 18 Sudeste 42 Sudeste 0 1010 1.4 90
2020-03-27 10:00:00 -- 30 Sudeste 42 Sudeste 0 1009.5 1.2 89
2020-03-27 09:00:00 -- 28 Sudeste 43 Sudeste 0 1009.1 1.2 90
2020-03-27 08:00:00 -- 28 Sudeste 42 Sudeste 0 1008.6 0.9 91
2020-03-27 07:00:00 -- 31 Sudeste 41 Sudeste 0 1008.3 0.7 93
2020-03-27 06:00:00 -- 21 Este 38 Este 0 1007.9 0.1 94
2020-03-27 05:00:00 -- 24 Nordeste 37 Nordeste 0 1007.7 -0.4 91
2020-03-27 04:00:00 -- 5 Oeste 13 Oeste 0 1007.6 -0.5 77
2020-03-27 03:00:00 -- 5 Noroeste 12 Oeste 0 1007.8 -0.7 74
2020-03-27 02:00:00 -- 5 Oeste 14 Oeste 0 1008.1 -0.5 73
2020-03-27 01:00:00 -- 4 Oeste 18 Oeste 0 1008.1 -0.4 72
2020-03-27 00:00:00 -- 6 Oeste 18 Oeste 0 1008.5 0.4 74
2020-03-26 23:00:00 -- 4 Oeste 20 Oeste 0 1008.6 0.9 77
2020-03-26 22:00:00 -- 6 Oeste 23 Oeste 0 1008.5 1.4 74
2020-03-26 21:00:00 -- 9 Oeste 24 Oeste 0 1008.1 1.4 72
2020-03-26 20:00:00 -- 8 Oeste 29 Oeste 0 1007.7 1.1 72
2020-03-26 19:00:00 -- 6 Oeste 38 Oeste 0 1007.1 0.2 63
2020-03-26 18:00:00 -- 11 Oeste 38 Oeste 0 1006.7 -0.8 63
2020-03-26 17:00:00 -- 8 Oeste 41 Oeste 0 1006.6 -1.7 60
2020-03-26 16:00:00 -- 8 Oeste 35 Oeste 0 1006.9 -2.5 63
2020-03-26 15:00:00 -- 7 Sudoeste 31 Oeste 0 1007.5 -2.9 61
2020-03-26 14:00:00 -- 7 Oeste 26 Oeste 0 1008.3 -2.4 70
2020-03-26 13:00:00 -- 6 Nordeste 17 Sudoeste 0 1009.4 -1.3 84
2020-03-26 12:00:00 -- 12 Sudoeste 16 Sudoeste 0 1010.4 -0.5 89
2020-03-26 11:00:00 -- 5 Sudeste 9 Sudeste 0 1010.7 -0.4 92
2020-03-26 10:00:00 -- 3 Sudeste 6 Nordeste 0 1010.7 -0.5 93
2020-03-26 09:00:00 -- 3 Nordeste 9 Noroeste 0 1010.9 -1.1 95
2020-03-26 08:00:00 -- 0 Calma 11 Oeste 0 1011.1 -1.3 95
2020-03-26 07:00:00 -- 5 Oeste 12 Oeste 0 1011.2 -1.7 95
2020-03-26 06:00:00 -- 3 Norte 12 Oeste 0 1012 -1.7 94
2020-03-26 05:00:00 -- 5 Noroeste 12 Oeste 0 1012.4 -1.9 93
2020-03-26 04:00:00 -- 6 Oeste 12 Oeste 0 1012.9 -2 93
2020-03-26 03:00:00 -- 5 Noroeste 14 Oeste 0 1013.7 -1.4 93
2020-03-26 02:00:00 -- 7 Noroeste 14 Oeste 0 1014.3 -1.4 93
2020-03-26 01:00:00 -- 8 Oeste 13 Oeste 0 1014.9 -1 93
2020-03-26 00:00:00 -- 5 Noroeste 12 Oeste 0 1015.1 -1 93
2020-03-25 23:00:00 -- 3 Norte 12 Noroeste 0 1015.7 0 93
2020-03-25 22:00:00 -- 4 Oeste 8 Norte 0 1015.9 0.5 90
2020-03-25 21:00:00 -- 0 Calma 8 Sur 0 1016.1 0.8 88
2020-03-25 20:00:00 -- 5 Sur 12 Sudeste 0 1015.7 -0.2 86
2020-03-25 19:00:00 -- 5 Sur 9 Sur 0 1015.4 -0.6 84
2020-03-25 18:00:00 -- 2 Sudeste 8 Sudeste 0 1015.3 -1.2 84
2020-03-25 17:00:00 -- 4 Este 11 Sudeste 0 1015.9 -1.1 87
2020-03-25 16:00:00 -- 6 Este 12 Este 0 1016 -1.3 89
2020-03-25 15:00:00 -- 9 Este 22 Este 0 1016.5 -0.9 90
2020-03-25 14:00:00 -- 12 Este 18 Este 0 1017 -0.1 89
2020-03-25 13:00:00 -- 8 Sudeste 15 Sur 0 1017.3 0.7 84
2020-03-25 12:00:00 -- 9 Sudeste 18 Sudeste 0 1017.4 1.4 85
2020-03-25 11:00:00 -- 16 Sur 25 Sudeste 0 1017.1 1.6 82
2020-03-25 10:00:00 -- 19 Sur 29 Sur 0 1016.6 1.9 88
2020-03-25 09:00:00 -- 3 Oeste 16 Noroeste 1 1016 2.1 99
2020-03-25 08:00:00 -- 6 Noroeste 16 Noroeste 1.6 1015.5 2.1 99
2020-03-25 07:00:00 -- 5 Noroeste 9 Oeste 1.2 1014.7 1.5 99
2020-03-25 06:00:00 -- 2 Oeste 14 Noroeste 1.2 1013.9 0.7 99
2020-03-25 05:00:00 -- 4 Noroeste 12 Noroeste 2.9 1013.4 0.2 98
2020-03-25 04:00:00 -- 5 Noroeste 11 Noroeste 1.8 1013.2 0.1 96
2020-03-25 03:00:00 -- 5 Oeste 11 Oeste 0 1013.2 0.4 96
2020-03-25 02:00:00 -- 5 Oeste 11 Oeste 0 1013.2 0.6 97
2020-03-25 01:00:00 -- 4 Oeste 8 Oeste 0 1013.1 0.9 98
2020-03-25 00:00:00 -- 3 Noroeste 10 Oeste 0 1012.8 1.3 98
2020-03-24 23:00:00 -- 3 Noroeste 10 Noroeste 0 1012.6 2.3 98
2020-03-24 22:00:00 -- 7 Noroeste 11 Noroeste 0.4 1012.2 3.1 97
2020-03-24 21:00:00 -- 5 Noroeste 12 Oeste 3.4 1011.5 3.2 93
2020-03-24 20:00:00 -- 4 Oeste 13 Oeste 0.4 1010.3 2.4 90
2020-03-24 19:00:00 -- 3 Oeste 9 Oeste 0 1009.1 1.3 86
2020-03-24 18:00:00 -- 3 Oeste 15 Oeste 0 1008.3 0.6 85
2020-03-24 17:00:00 -- 5 Oeste 14 Oeste 0 1007.9 0.2 87
2020-03-24 16:00:00 -- 3 Oeste 11 Oeste 0 1007.8 0 88
2020-03-24 15:00:00 -- 3 Sudoeste 16 Oeste 0 1007.7 0.4 89
2020-03-24 14:00:00 -- 9 Sudoeste 14 Sur 0.1 1007.7 1 85
2020-03-24 13:00:00 -- 7 Sur 10 Sur 0 1007.8 1.3 88
2020-03-24 12:00:00 -- 6 Sur 12 Sur 0 1007.3 0.8 84
2020-03-24 11:00:00 -- 2 Sudoeste 12 Oeste 0 1006.7 0.4 87
2020-03-24 10:00:00 -- 3 Noroeste 11 Noroeste 0 1006.5 0.6 87
2020-03-24 09:00:00 -- 5 Noroeste 16 Oeste 0 1006.5 0.8 90
2020-03-24 08:00:00 -- 10 Oeste 23 Oeste 0.1 1006.3 0.4 93
2020-03-24 07:00:00 -- 8 Noroeste 17 Norte 2.3 1005.9 0 91
2020-03-24 06:00:00 -- 8 Noroeste 17 Oeste 0.3 1005.7 -0.8 82
2020-03-24 05:00:00 -- 8 Noroeste 16 Oeste 0 1005.9 -1.4 80
2020-03-24 04:00:00 -- 6 Noroeste 16 Noroeste 0 1005.9 -2.4 79
2020-03-24 03:00:00 -- 8 Noroeste 13 Oeste 0 1006.5 -2.5 82
2020-03-24 02:00:00 -- 7 Noroeste 13 Oeste 0 1007.3 -1.6 83
2020-03-24 01:00:00 -- 6 Noroeste 14 Oeste 0 1008.3 -0.7 83
2020-03-24 00:00:00 -- 7 Oeste 13 Noroeste 0 1009 -0.1 85
2020-03-23 23:00:00 -- 6 Noroeste 15 Oeste 0 1008.9 -0.5 87
2020-03-23 22:00:00 -- 8 Noroeste 15 Oeste 0 1009 -0.6 89
2020-03-23 21:00:00 -- 8 Noroeste 15 Noroeste 0 1009.1 -1 91
2020-03-23 20:00:00 -- 5 Norte 26 Nordeste 0 1009.4 -0.8 88
2020-03-23 19:00:00 -- 19 Nordeste 28 Nordeste 0.1 1009.6 -0.8 93
2020-03-23 18:00:00 -- 7 Norte 21 Nordeste 4.5 1010.1 -0.7 96
2020-03-23 17:00:00 -- 14 Nordeste 25 Este 0.2 1010.2 -1.1 94
2020-03-23 16:00:00 -- 12 Este 31 Nordeste 1.8 1010.4 -1.6 98
2020-03-23 15:00:00 -- 19 Este 28 Este 4.6 1010.8 -1.6 98
2020-03-23 14:00:00 -- 13 Nordeste 18 Nordeste 5.8 1011.3 -1 98
2020-03-23 13:00:00 -- 11 Este 22 Este 3.4 1012 -0.2 95
2020-03-23 12:00:00 -- 18 Este 27 Este 0.4 1012.4 0.6 91
2020-03-23 11:00:00 -- 16 Este 23 Este 0 1012.3 0.6 86
2020-03-23 10:00:00 -- 13 Nordeste 23 Nordeste 0 1012.2 1 89
2020-03-23 09:00:00 -- 14 Nordeste 22 Este 0 1011.8 0.8 90
2020-03-23 08:00:00 -- 4 Norte 15 Este 0 1011.7 0.6 90
2020-03-23 07:00:00 -- 4 Nordeste 14 Noroeste 0 1011.2 0.3 91
2020-03-23 06:00:00 -- 6 Noroeste 14 Este 0 1011 -0.7 90
2020-03-23 05:00:00 -- 12 Nordeste 17 Este 0 1011.1 -0.8 90
2020-03-23 04:00:00 -- 5 Nordeste 13 Nordeste 0 1010.9 -1.1 91
2020-03-23 03:00:00 -- 3 Noroeste 9 Oeste 0 1011.7 -0.5 90
2020-03-23 02:00:00 -- 4 Noroeste 11 Noroeste 0 1011.9 -0.5 89
2020-03-23 01:00:00 -- 5 Noroeste 10 Noroeste 0 1012 -0.3 86
2020-03-23 00:00:00 -- 5 Noroeste 10 Noroeste 0 1012.2 0.5 87
2020-03-22 23:00:00 -- 4 Norte 13 Norte 0 1012.4 1 90
2020-03-22 22:00:00 -- 3 Nordeste 12 Nordeste 0 1012.3 1.5 88
2020-03-22 21:00:00 -- 3 Nordeste 8 Nordeste 0 1011.7 1.6 85
2020-03-22 20:00:00 -- 0 Calma 12 Sudoeste 0 1011.4 1.4 86
2020-03-22 19:00:00 -- 5 Sudoeste 14 Sur 0 1010.8 1.1 85
2020-03-22 18:00:00 -- 4 Sudoeste 13 Sur 0 1010.1 0 85
2020-03-22 17:00:00 -- 4 Sur 14 Sur 0 1010 -0.3 85
2020-03-22 16:00:00 -- 8 Sur 13 Sur 0 1009.7 -0.9 85
2020-03-22 15:00:00 -- 7 Sudeste 15 Sudeste 0 1010.1 -0.9 85
2020-03-22 14:00:00 -- 10 Sudeste 17 Sudeste 0 1010.3 -0.6 88
2020-03-22 13:00:00 -- 11 Este 18 Sudeste 0 1010.6 0 90
2020-03-22 12:00:00 -- 10 Este 18 Sudeste 0 1011 0.7 92
2020-03-22 11:00:00 -- 7 Este 15 Nordeste 0 1010.9 1.3 93
2020-03-22 10:00:00 -- 9 Nordeste 17 Nordeste 0 1010.6 1.3 96
2020-03-22 09:00:00 -- 10 Nordeste 32 Nordeste 0 1010.3 1 98
2020-03-22 08:00:00 -- 18 Este 24 Este 0 1009.6 0.4 99
2020-03-22 07:00:00 -- 3 Norte 10 Nordeste 0 1009.3 0.1 98
2020-03-22 06:00:00 -- 2 Norte 8 Norte 0 1009.3 -0.8 98
2020-03-22 05:00:00 -- 0 Calma 7 Sudoeste 0.1 1009.2 -1.2 98
2020-03-22 04:00:00 -- 0 Calma 9 Sur 1.9 1009.2 -1.8 98
2020-03-22 03:00:00 -- 0 Calma 5 Oeste 2 1010.1 -1.1 98
2020-03-22 02:00:00 -- 0 Calma 12 Norte 0 1010.4 -1 97
2020-03-22 01:00:00 -- 6 Norte 30 Oeste 3.3 1011 -0.4 96
2020-03-22 00:00:00 -- 6 Sudoeste 32 Sur 0.7 1011.2 -0.1 94
2020-03-21 23:00:00 -- 3 Oeste 12 Oeste 0 1011.4 0.2 95
2020-03-21 22:00:00 -- 4 Norte 9 Nordeste 0 1011.4 0.1 95
2020-03-21 21:00:00 -- 2 Norte 15 Sudoeste 0.1 1011.3 0.3 95
2020-03-21 20:00:00 -- 2 Oeste 18 Oeste 0.2 1011.2 0.2 96
2020-03-21 19:00:00 -- 5 Oeste 21 Oeste 2.3 1011.3 0.7 96
2020-03-21 18:00:00 -- 4 Oeste 27 Oeste 1.7 1011 -0.1 93
2020-03-21 17:00:00 -- 8 Oeste 39 Oeste 0.9 1011 -1 88
2020-03-21 16:00:00 -- 9 Oeste 28 Oeste 0 1010.6 -2.1 74
2020-03-21 15:00:00 -- 6 Sudoeste 21 Sudoeste 0 1011.1 -2.1 85
2020-03-21 14:00:00 -- 7 Sudoeste 30 Sur 0 1012 -1.4 77
2020-03-21 13:00:00 -- 9 Sudoeste 27 Sudoeste 0 1012.7 -0.8 80
2020-03-21 12:00:00 -- 5 Oeste 25 Sur 0 1013.2 -0.3 82
2020-03-21 11:00:00 -- 12 Sur 18 Sur 0 1013.4 0.4 90
2020-03-21 10:00:00 -- 2 Sur 5 Sudeste 0 1013.5 0.7 99
2020-03-21 09:00:00 -- 3 Oeste 9 Noroeste 0 1013.5 1.2 99
2020-03-21 08:00:00 -- 6 Noroeste 11 Noroeste 0 1013 0.8 99
2020-03-21 07:00:00 -- 4 Norte 17 Este 0 1012.8 1.1 99
2020-03-21 06:00:00 -- 13 Este 20 Este 0 1012.3 0.3 99
2020-03-21 05:00:00 -- 3 Nordeste 11 Sudoeste 0.3 1012.2 -0.2 99
2020-03-21 04:00:00 -- 0 Calma 45 Sur 12.3 1011.7 -1.2 99
2020-03-21 03:00:00 -- 28 Sudeste 44 Sudeste 5.3 1012 -1.6 99
2020-03-21 02:00:00 -- 21 Sudeste 45 Sudeste 5.3 1012.4 -1.4 99
2020-03-21 01:00:00 -- 23 Sudeste 35 Sudeste 3.9 1012.9 -0.9 99
2020-03-21 00:00:00 -- 26 Sudeste 41 Sudeste 0.2 1013.6 -0.2 98
2020-03-20 23:00:00 -- 27 Sudeste 36 Sudeste 0 1013.8 -0.1 97
2020-03-20 22:00:00 -- 19 Sudeste 31 Sudeste 1.5 1013.8 0.3 96
2020-03-20 21:00:00 -- 23 Sudeste 31 Sudeste 0 1013.8 0.7 93
2020-03-20 20:00:00 -- 18 Sudeste 25 Sudeste 0 1013.9 1.1 92
2020-03-20 19:00:00 -- 17 Sudeste 25 Sudeste 0 1013.5 0.9 91
2020-03-20 18:00:00 -- 9 Sudeste 19 Sur 0 1013.1 -0.1 90
2020-03-20 17:00:00 -- 5 Sudoeste 17 Sudoeste 0 1012.8 -1.5 87
2020-03-20 16:00:00 -- 5 Sudeste 8 Sur 0 1012.6 -2.4 80
2020-03-20 15:00:00 -- 5 Nordeste 11 Este 0 1013.2 -2.2 80
2020-03-20 14:00:00 -- 8 Este 22 Este 0 1014.3 -0.9 87
2020-03-20 13:00:00 -- 21 Este 36 Sudeste 0 1015 -0.5 86
2020-03-20 12:00:00 -- 27 Sudeste 39 Sudeste 0 1015.4 0.3 85
2020-03-20 11:00:00 -- 17 Este 28 Sudeste 0 1015.2 0.7 87
2020-03-20 10:00:00 -- 15 Sudeste 22 Sudeste 0 1015.5 1.4 88
2020-03-20 09:00:00 -- 14 Sudeste 25 Sudeste 0 1015.1 1.2 88
2020-03-20 08:00:00 -- 21 Sudeste 30 Sudeste 0 1014.5 0.8 87
2020-03-20 07:00:00 -- 23 Sudeste 40 Sudeste 0 1014.1 0.3 86
2020-03-20 06:00:00 -- 27 Sudeste 42 Sudeste 0 1013.9 -0.6 86
2020-03-20 05:00:00 -- 24 Sudeste 38 Sudeste 0 1013.7 -1.7 86
2020-03-20 04:00:00 -- 15 Sudeste 28 Sudeste 0 1013.8 -2 86
2020-03-20 03:00:00 -- 19 Sudeste 30 Sudeste 0 1014.5 -1.5 85
2020-03-20 02:00:00 -- 17 Sudeste 49 Sudeste 0 1015.4 -0.7 87
2020-03-20 01:00:00 -- 28 Sudeste 40 Sudeste 0 1015.8 -0.3 87
2020-03-20 00:00:00 -- 29 Sudeste 41 Sudeste 0 1016 0 90
2020-03-19 23:00:00 -- 20 Sudeste 29 Sur 0 1016.1 0.5 90
2020-03-19 22:00:00 -- 20 Sudeste 28 Sudeste 0 1016.1 0.9 90
2020-03-19 21:00:00 -- 7 Sudeste 13 Este 0 1016 0.9 90
2020-03-19 20:00:00 -- 10 Este 19 Este 0 1015.6 0.1 90
2020-03-19 19:00:00 -- 14 Este 21 Nordeste 0 1015.2 -0.8 88
2020-03-19 18:00:00 -- 14 Este 31 Sudeste 0 1015.1 -1.3 86
2020-03-19 17:00:00 -- 19 Sudeste 30 Sudeste 0 1015.5 -1.7 86
2020-03-19 16:00:00 -- 24 Sudeste 42 Sudeste 0 1016 -1.8 87
2020-03-19 15:00:00 -- 28 Sudeste 41 Sudeste 0 1016.4 -2 86
2020-03-19 14:00:00 -- 25 Sudeste 39 Sudeste 0 1017.2 -1.5 86
2020-03-19 13:00:00 -- 25 Sudeste 40 Sudeste 0 1017.8 -0.9 87
2020-03-19 12:00:00 -- 24 Sudeste 36 Sudeste 0 1018.4 0.2 87
2020-03-19 11:00:00 -- 19 Sudeste 34 Sudeste 0 1018.7 1 87
2020-03-19 10:00:00 -- 19 Sudeste 25 Sudeste 0 1018.7 0.6 87
2020-03-19 09:00:00 -- 14 Sudeste 20 Sudeste 0 1018.2 0.3 87
2020-03-19 08:00:00 -- 2 Sudeste 9 Sur 0 1017.7 -0.4 89
2020-03-19 07:00:00 -- 5 Sur 12 Sur 0 1018.1 -0.4 89
2020-03-19 06:00:00 -- 5 Sur 12 Sudeste 0 1017.9 -1.4 89
2020-03-19 05:00:00 -- 6 Sudeste 16 Sudeste 0 1018.1 -1.5 89
2020-03-19 04:00:00 -- 12 Sudeste 20 Sudeste 0 1018.5 -1 89
2020-03-19 03:00:00 -- 7 Sudeste 20 Sudeste 0 1019.3 -0.9 90
2020-03-19 02:00:00 -- 3 Sudeste 12 Este 0 1019.6 -0.8 90
2020-03-19 01:00:00 -- 7 Este 15 Sudeste 0 1019.5 -0.6 90
2020-03-19 00:00:00 -- 8 Sudeste 17 Sudeste 0 1020.2 0.7 89
2020-03-18 23:00:00 -- 8 Sudeste 14 Sudeste 0 1020.4 1.7 88
2020-03-18 22:00:00 -- 5 Sur 12 Sudeste 0 1020.1 1.9 87
2020-03-18 21:00:00 -- 3 Este 11 Este 0 1019.5 1.4 86
2020-03-18 20:00:00 -- 7 Nordeste 15 Este 0 1018.7 0.3 86
2020-03-18 19:00:00 -- 10 Este 19 Este 0 1018.2 -0.4 85
2020-03-18 18:00:00 -- 8 Este 21 Este 0 1018.1 -0.8 83
2020-03-18 17:00:00 -- 14 Este 28 Este 0 1018.4 -1.4 82
2020-03-18 16:00:00 -- 13 Este 39 Sudeste 0 1018.6 -1.6 82
2020-03-18 15:00:00 -- 14 Este 26 Este 0 1018.9 -1.7 84
2020-03-18 14:00:00 -- 15 Este 42 Sudeste 0 1019.8 -0.6 85
2020-03-18 13:00:00 -- 29 Sudeste 46 Sudeste 0 1020.2 0.4 86
2020-03-18 12:00:00 -- 32 Sudeste 51 Sudeste 0 1020.6 1.4 86
2020-03-18 11:00:00 -- 37 Sudeste 55 Sudeste 0 1020.4 1.5 86
2020-03-18 10:00:00 -- 31 Sudeste 48 Sudeste 0 1019.8 1.6 86
2020-03-18 09:00:00 -- 18 Este 38 Sudeste 0 1019.2 1.4 85
2020-03-18 08:00:00 -- 20 Este 37 Este 0 1018.9 1.7 85
2020-03-18 07:00:00 -- 18 Este 32 Este 0 1018.2 1.5 86
2020-03-18 06:00:00 -- 17 Este 32 Este 0 1017.8 0.3 87
2020-03-18 05:00:00 -- 19 Este 39 Este 0 1017.2 -0.9 87
2020-03-18 04:00:00 -- 30 Este 48 Este 0 1016.7 -1.6 87
2020-03-18 03:00:00 -- 31 Este 58 Sudeste 0 1017.5 -0.7 87
2020-03-18 02:00:00 -- 38 Sudeste 67 Sudeste 0.1 1018.1 0.3 89
2020-03-18 01:00:00 -- 24 Este 61 Sudeste 0 1018.3 0.4 91
2020-03-18 00:00:00 -- 14 Este 26 Este 0 1018.2 0.2 88
2020-03-17 23:00:00 -- 8 Este 19 Este 0 1017.8 -0.2 87
2020-03-17 22:00:00 -- 10 Este 28 Este 0 1017.9 -0.3 87
2020-03-17 21:00:00 -- 11 Nordeste 21 Este 0 1018 0.1 91
2020-03-17 20:00:00 -- 13 Este 25 Este 0 1018 0.1 90
2020-03-17 19:00:00 -- 15 Este 26 Sudeste 0 1018.2 0.3 89
2020-03-17 18:00:00 -- 22 Sudeste 36 Sudeste 0 1017.9 -0.2 90
2020-03-17 17:00:00 -- 24 Sudeste 84 Sudeste 0.2 1017.9 -0.9 85
2020-03-17 16:00:00 -- 28 Sudeste 46 Sudeste 0 1017.9 -1.1 80
2020-03-17 15:00:00 -- 33 Sudeste 44 Sudeste 0 1018.1 -1.1 77
2020-03-17 14:00:00 -- 32 Sudeste 50 Sudeste 0 1018.8 -0.4 78
2020-03-17 13:00:00 -- 29 Sudeste 50 Sudeste 0 1019 0.4 78
2020-03-17 12:00:00 -- 8 Este 17 Este 0 1019.2 1.4 74
2020-03-17 11:00:00 -- 8 Este 13 Este 0 1019.2 1.6 73
2020-03-17 10:00:00 -- 5 Oeste 13 Oeste 0 1018.6 2 77
2020-03-17 09:00:00 -- 5 Noroeste 13 Oeste 0 1017.8 1.8 79
2020-03-17 08:00:00 -- 6 Noroeste 27 Oeste 0 1017.6 2.1 84
2020-03-17 07:00:00 -- 0 Calma 10 Noroeste 0 1016.6 1.3 72
2020-03-17 06:00:00 -- 5 Oeste 8 Oeste 0 1016 0.5 71
2020-03-17 05:00:00 -- 5 Noroeste 14 Oeste 0 1015.5 -0.1 67
2020-03-17 04:00:00 -- 6 Noroeste 10 Oeste 0 1015.3 -0.2 66
2020-03-17 03:00:00 -- 4 Oeste 8 Oeste 0 1015.5 0.1 63
2020-03-17 02:00:00 -- 4 Noroeste 14 Oeste 0 1015.6 0.4 60
2020-03-17 01:00:00 -- 7 Oeste 16 Oeste 0 1015.5 0.4 57
2020-03-17 00:00:00 -- 3 Norte 13 Nordeste 0 1015.4 1 53
2020-03-16 23:00:00 -- 3 Nordeste 15 Noroeste 0 1015.2 1.6 50
2020-03-16 22:00:00 -- 10 Norte 19 Nordeste 0 1015.1 2.1 47
2020-03-16 21:00:00 -- 3 Oeste 16 Noroeste 0 1014.4 2.1 48
2020-03-16 20:00:00 -- 5 Noroeste 13 Noroeste 0 1013.6 1.5 45
2020-03-16 19:00:00 -- 5 Noroeste 21 Noroeste 0 1013 1 43
2020-03-16 18:00:00 -- 9 Noroeste 26 Noroeste 0 1012.3 0.4 41
2020-03-16 17:00:00 -- 0 Calma 24 Nordeste 0 1012.1 -0.2 42
2020-03-16 16:00:00 -- 5 Norte 26 Noroeste 0 1012 -0.8 37
2020-03-16 15:00:00 -- 11 Norte 32 Norte 0 1011.9 -1.4 36
2020-03-16 14:00:00 -- 8 Noroeste 34 Norte 0 1012.3 -0.6 34
2020-03-16 13:00:00 -- 12 Noroeste 32 Norte 0 1012.8 0.2 37
2020-03-16 12:00:00 -- 9 Noroeste 36 Noroeste 0 1013.3 1.1 41
2020-03-16 11:00:00 -- 16 Noroeste 37 Noroeste 0 1012.9 1.2 40
2020-03-16 10:00:00 -- 7 Noroeste 32 Noroeste 0 1012.6 1.4 49
2020-03-16 09:00:00 -- 9 Noroeste 27 Norte 0 1012.2 1.1 53
2020-03-16 08:00:00 -- 6 Nordeste 18 Este 0 1011.7 0.4 83
2020-03-16 07:00:00 -- 9 Nordeste 17 Nordeste 0 1011.2 -0.4 91
2020-03-16 06:00:00 -- 0 Calma 5 Oeste 0 1011.1 -1.6 93
2020-03-16 05:00:00 -- 2 Oeste 6 Oeste 0 1011.3 -1.6 93
2020-03-16 04:00:00 -- 0 Calma 8 Oeste 0 1011.6 -1.7 95
2020-03-16 03:00:00 -- 4 Oeste 8 Oeste 0 1012.7 -1.1 95
2020-03-16 02:00:00 -- 4 Oeste 12 Oeste 0 1012.9 -1.1 94
2020-03-16 01:00:00 -- 5 Oeste 10 Oeste 0 1013.3 -1 94
2020-03-16 00:00:00 -- 3 Oeste 6 Noroeste 0 1013.8 -0.2 94
2020-03-15 23:00:00 -- 2 Noroeste 8 Noroeste 0 1014 0.2 94
2020-03-15 22:00:00 -- 0 Calma 6 Noroeste 0 1014.3 0.7 93
2020-03-15 21:00:00 -- 2 Oeste 6 Oeste 0 1014 -0.2 93
2020-03-15 20:00:00 -- 0 Calma 8 Sudeste 0 1013.8 -0.7 92
2020-03-15 19:00:00 -- 6 Sudeste 9 Sudeste 0 1013.6 -1.3 91
2020-03-15 18:00:00 -- 6 Sudeste 10 Sudeste 0 1014.2 -1.2 90
2020-03-15 17:00:00 -- 5 Nordeste 13 Sudeste 0 1014.5 -1.7 90
2020-03-15 16:00:00 -- 7 Este 13 Este 0 1014.9 -1.8 93
2020-03-15 15:00:00 -- 10 Este 18 Nordeste 0 1015.4 -1.9 95
2020-03-15 14:00:00 -- 11 Nordeste 27 Sudeste 0 1016.2 -1.6 98
2020-03-15 13:00:00 -- 18 Sudeste 25 Sudeste 0.8 1016.7 -0.7 98
2020-03-15 12:00:00 -- 12 Este 18 Este 1.8 1017.3 0.2 96
2020-03-15 11:00:00 -- 9 Este 13 Este 0 1017.8 0.9 93
2020-03-15 10:00:00 -- 6 Este 14 Sudeste 0 1017.4 1.2 93
2020-03-15 09:00:00 -- 9 Este 14 Este 0 1017.1 0.6 93
2020-03-15 08:00:00 -- 9 Este 20 Este 0 1016.9 0.3 93
2020-03-15 07:00:00 -- 13 Este 19 Este 0 1016.2 -0.6 93
2020-03-15 06:00:00 -- 7 Este 16 Este 0 1016.5 -1.2 92
2020-03-15 05:00:00 -- 12 Este 17 Este 0 1016.6 -1.2 92
2020-03-15 04:00:00 -- 10 Este 14 Nordeste 0 1016.8 -1.3 93
2020-03-15 03:00:00 -- 8 Este 16 Este 0 1017.7 -0.8 93
2020-03-15 02:00:00 -- 10 Este 19 Este 0 1017.8 -0.6 93
2020-03-15 01:00:00 -- 9 Nordeste 14 Este 0 1018.1 0.2 95
2020-03-15 00:00:00 -- 8 Este 12 Sudeste 0 1018.5 1.1 95
2020-03-14 23:00:00 -- 8 Sudeste 11 Sudeste 0 1018.4 1.1 94
2020-03-14 22:00:00 -- 4 Este 6 Nordeste 0 1017.9 0.5 93
2020-03-14 21:00:00 -- 3 Este 5 Nordeste 0 1017.4 0 90
2020-03-14 20:00:00 -- 0 Calma 6 Sudeste 0 1017.3 0 87
2020-03-14 19:00:00 -- 2 Sudeste 6 Sudeste 0 1017.4 -0.4 85
2020-03-14 18:00:00 -- 5 Sudeste 9 Sudeste 0 1017.4 -0.6 82
2020-03-14 17:00:00 -- 5 Sudeste 9 Sudeste 0 1017.3 -1.6 77
2020-03-14 16:00:00 -- 4 Sudeste 12 Sudeste 0 1017.8 -1.6 79
2020-03-14 15:00:00 -- 10 Sudeste 15 Sudeste 0 1018 -1.6 83
2020-03-14 14:00:00 -- 9 Este 16 Sudeste 0 1018.9 -0.9 82
2020-03-14 13:00:00 -- 9 Este 14 Sudeste 0 1019.4 -0.1 82
2020-03-14 12:00:00 -- 11 Este 15 Sudeste 0 1019.6 0.5 82
2020-03-14 11:00:00 -- 10 Este 15 Este 0 1019.8 1.5 85
2020-03-14 10:00:00 -- 8 Este 12 Este 0 1019.5 1.4 87
2020-03-14 09:00:00 -- 0 Calma 6 Noroeste 0 1019.1 1.2 88
2020-03-14 08:00:00 -- 3 Noroeste 10 Este 0 1018.3 0.6 90
2020-03-14 07:00:00 -- 7 Este 15 Este 0 1018.1 0.2 94
2020-03-14 06:00:00 -- 10 Este 17 Este 0 1017.9 -0.2 97
2020-03-14 05:00:00 -- 11 Este 17 Nordeste 0 1017.7 -0.5 98
2020-03-14 04:00:00 -- 10 Este 17 Este 0 1017.9 -0.3 98
2020-03-14 03:00:00 -- 11 Este 18 Este 0 1018.1 -0.2 98
2020-03-14 02:00:00 -- 14 Este 22 Este 0 1018.2 0.3 98
2020-03-14 01:00:00 -- 15 Este 23 Este 0 1018.2 0.8 98
2020-03-14 00:00:00 -- 14 Este 23 Este 0 1018.3 1.4 99
2020-03-13 23:00:00 -- 17 Este 26 Este 0 1017.9 1.5 99
2020-03-13 22:00:00 -- 20 Este 27 Este 0 1017.4 1.5 98
2020-03-13 21:00:00 -- 19 Este 30 Este 0 1016.9 1.8 98
2020-03-13 20:00:00 -- 23 Este 31 Este 0 1016.4 1.2 95
2020-03-13 19:00:00 -- 19 Este 32 Este 0 1015.9 0.7 92
2020-03-13 18:00:00 -- 17 Este 26 Este 0 1015.1 -0.3 87
2020-03-13 17:00:00 -- 11 Este 17 Sudeste 0 1015.2 -0.6 82
2020-03-13 16:00:00 -- 14 Sudeste 19 Este 0 1015.2 -0.8 86
2020-03-13 15:00:00 -- 16 Sudeste 20 Sudeste 0 1015.4 -0.6 85
2020-03-13 14:00:00 -- 3 Sur 10 Nordeste 0 1015.8 -0.3 88
2020-03-13 13:00:00 -- 8 Nordeste 11 Nordeste 0 1016 0 87
2020-03-13 12:00:00 -- 4 Sudeste 6 Este 0 1016 0.5 87
2020-03-13 11:00:00 -- 2 Sur 5 Este 0 1016.1 1.1 90
2020-03-13 10:00:00 -- 3 Nordeste 8 Nordeste 0 1016 1.4 86
2020-03-13 09:00:00 -- 0 Calma 5 Oeste 0 1015.5 0.9 78
2020-03-13 08:00:00 -- 0 Calma 5 Oeste 0 1015 0.3 76
2020-03-13 07:00:00 -- 3 Norte 5 Norte 0 1014.6 -0.4 77
2020-03-13 06:00:00 -- 0 Calma 6 Oeste 0 1014.6 -1 72
2020-03-13 05:00:00 -- 2 Oeste 6 Oeste 0 1014.7 -1.3 73
2020-03-13 04:00:00 -- 0 Calma 6 Oeste 0 1015 -1.3 71
2020-03-13 03:00:00 -- 0 Calma 7 Oeste 0 1015.6 -1 71
2020-03-13 02:00:00 -- 0 Calma 8 Oeste 0 1016 -0.7 71
2020-03-13 01:00:00 -- 0 Calma 5 Oeste 0 1016.3 -0.1 70
2020-03-13 00:00:00 -- 3 Noroeste 8 Noroeste 0 1016.6 0.4 68
2020-03-12 23:00:00 -- 0 Calma 4 Norte 0 1016.7 1 69
2020-03-12 22:00:00 -- 0 Calma 5 Oeste 0 1016.4 0.7 66
2020-03-12 21:00:00 -- 3 Nordeste 8 Este 0 1016.2 0.5 71
2020-03-12 20:00:00 -- 0 Calma 6 Nordeste 0 1015.7 -0.4 68
2020-03-12 19:00:00 -- 0 Calma 9 Sudoeste 0 1015.7 -0.8 60
2020-03-12 18:00:00 -- 7 Sudoeste 12 Sudoeste 0 1015.7 -1.4 61
2020-03-12 17:00:00 -- 5 Sudoeste 11 Sudoeste 0 1016.1 -1.9 68
2020-03-12 16:00:00 -- 8 Sudoeste 13 Sudoeste 0 1016.5 -2.4 68
2020-03-12 15:00:00 -- 9 Sudoeste 17 Sur 0 1017.1 -2.2 71
2020-03-12 14:00:00 -- 10 Sudoeste 16 Sudoeste 0 1018 -1.3 65
2020-03-12 13:00:00 -- 12 Sudoeste 17 Sudoeste 0 1018.9 -0.2 65
2020-03-12 12:00:00 -- 11 Sudoeste 15 Sur 0 1019.3 0.6 65
2020-03-12 11:00:00 -- 2 Sudoeste 8 Oeste 0 1019.3 1 65
2020-03-12 10:00:00 -- 5 Oeste 11 Oeste 0 1019.1 1.2 65
2020-03-12 09:00:00 -- 5 Noroeste 12 Noroeste 0 1018.7 0.8 66
2020-03-12 08:00:00 -- 7 Noroeste 13 Noroeste 0 1018.3 0.2 66
2020-03-12 07:00:00 -- 5 Noroeste 13 Noroeste 0 1017.9 -0.9 65
2020-03-12 06:00:00 -- 6 Noroeste 12 Oeste 0 1017.9 -1.6 66
2020-03-12 05:00:00 -- 6 Noroeste 11 Noroeste 0 1018.1 -1.8 68
2020-03-12 04:00:00 -- 4 Noroeste 8 Noroeste 0 1018.8 -1.5 70
2020-03-12 03:00:00 -- 3 Noroeste 7 Noroeste 0 1019.5 -0.7 70
2020-03-12 02:00:00 -- 3 Noroeste 14 Noroeste 0 1019.9 -0.2 70
2020-03-12 01:00:00 -- 2 Noroeste 12 Oeste 0 1020.3 0.3 69
2020-03-12 00:00:00 -- 4 Noroeste 12 Noroeste 0 1020.2 0.6 68
2020-03-11 23:00:00 -- 5 Noroeste 9 Oeste 0 1020.1 0.7 68
2020-03-11 22:00:00 -- 0 Calma 5 Oeste 0 1020 0.8 69
2020-03-11 21:00:00 -- 3 Sudoeste 9 Este 0 1019.6 0.5 69
2020-03-11 20:00:00 -- 3 Nordeste 20 Nordeste 0 1019.4 0.2 66
2020-03-11 19:00:00 -- 8 Este 29 Este 0 1019.2 -0.8 67
2020-03-11 18:00:00 -- 14 Este 28 Este 0 1019.1 -1.6 65
2020-03-11 17:00:00 -- 16 Este 26 Este 0 1019.2 -2.7 64
2020-03-11 16:00:00 -- 12 Este 21 Este 0 1020 -2.7 66
2020-03-11 15:00:00 -- 13 Este 21 Sudeste 0 1020.7 -2.7 67
2020-03-11 14:00:00 -- 9 Este 19 Sudeste 0 1021.9 -1.8 68
2020-03-11 13:00:00 -- 5 Este 16 Este 0 1022.7 -0.7 69
2020-03-11 12:00:00 -- 8 Este 14 Este 0 1023.4 0.3 69
2020-03-11 11:00:00 -- 3 Este 12 Nordeste 0 1023.7 1.3 74
2020-03-11 10:00:00 -- 3 Este 6 Oeste 0 1023.4 1.1 68
2020-03-11 09:00:00 -- 3 Oeste 14 Noroeste 0 1023.1 0.8 66
2020-03-11 08:00:00 -- 8 Noroeste 14 Oeste 0 1022.4 -0.2 67
2020-03-11 07:00:00 -- 6 Noroeste 11 Noroeste 0 1022.3 -0.8 68
2020-03-11 06:00:00 -- 4 Noroeste 11 Noroeste 0 1022.3 -1.5 66
2020-03-11 05:00:00 -- 8 Noroeste 14 Noroeste 0 1022.6 -1.5 65
2020-03-11 04:00:00 -- 8 Noroeste 19 Oeste 0 1023.1 -1.6 65
2020-03-11 03:00:00 -- 5 Noroeste 12 Oeste 0 1023.8 -1.2 65
2020-03-11 02:00:00 -- 4 Noroeste 10 Noroeste 0 1024.1 -1.2 65
2020-03-11 01:00:00 -- 4 Noroeste 9 Oeste 0 1024.7 -0.5 65
2020-03-11 00:00:00 -- 3 Noroeste 8 Oeste 0 1025 -0.4 66
2020-03-10 23:00:00 -- 2 Nordeste 10 Oeste 0 1025.3 0.1 65
2020-03-10 22:00:00 -- 2 Nordeste 9 Este 0 1025.2 -0.1 73
2020-03-10 21:00:00 -- 5 Nordeste 13 Este 0 1025.4 0.2 73
2020-03-10 20:00:00 -- 9 Este 13 Este 0 1025.2 0 69
2020-03-10 19:00:00 -- 6 Este 12 Este 0 1025.3 -0.3 65
2020-03-10 18:00:00 -- 7 Este 18 Este 0 1025.2 -0.7 65
2020-03-10 17:00:00 -- 10 Este 19 Este 0 1025.2 -0.8 61
2020-03-10 16:00:00 -- 10 Este 19 Este 0 1025.6 -0.4 67
2020-03-10 15:00:00 -- 12 Este 25 Este 0 1025.9 -0.2 70
2020-03-10 14:00:00 -- 17 Nordeste 28 Este 0 1026 0.6 69
2020-03-10 13:00:00 -- 19 Este 29 Este 0 1026 1.4 68
2020-03-10 12:00:00 -- 20 Este 30 Este 0 1026.1 2.7 64
2020-03-10 11:00:00 -- 18 Este 27 Este 0 1025.4 2.8 74
2020-03-10 10:00:00 -- 5 Nordeste 17 Este 0 1024.6 2.7 80
2020-03-10 09:00:00 -- 4 Nordeste 6 Este 0 1023.4 1.8 80
2020-03-10 08:00:00 -- 0 Calma 6 Noroeste 0 1022.6 1.5 82
2020-03-10 07:00:00 -- 9 Este 15 Este 0 1021.9 1.4 83
2020-03-10 06:00:00 -- 8 Este 35 Este 0 1021.6 0.3 78
2020-03-10 05:00:00 -- 8 Este 20 Sudeste 0 1021.1 -0.4 63
2020-03-10 04:00:00 -- 14 Norte 41 Noroeste 0 1020.5 -1 43
2020-03-10 03:00:00 -- 5 Nordeste 33 Este 0 1021.3 -0.3 45
2020-03-10 02:00:00 -- 4 Sudoeste 18 Oeste 0 1021.5 -0.5 49
2020-03-10 01:00:00 -- 8 Noroeste 20 Noroeste 0 1021.5 -0.2 48
2020-03-10 00:00:00 -- 5 Norte 45 Este 0 1021.6 0.8 47